sensor_id;sensor_type;location;lat;lon;timestamp;P1;durP1;ratioP1;P2;durP2;ratioP2
56429;SDS011;42332;52.136;20.666;2024-03-02T00:01:53;43.30;;;18.42;;
56429;SDS011;42332;52.136;20.666;2024-03-02T00:04:18;53.78;;;20.45;;
56429;SDS011;42332;52.136;20.666;2024-03-02T00:06:44;52.20;;;20.38;;
56429;SDS011;42332;52.136;20.666;2024-03-02T00:09:09;56.15;;;20.67;;
56429;SDS011;42332;52.136;20.666;2024-03-02T00:11:37;56.28;;;22.08;;
56429;SDS011;42332;52.136;20.666;2024-03-02T00:14:04;50.63;;;21.13;;
56429;SDS011;42332;52.136;20.666;2024-03-02T00:16:32;49.80;;;19.70;;
56429;SDS011;42332;52.136;20.666;2024-03-02T00:19:02;48.92;;;20.13;;
56429;SDS011;42332;52.136;20.666;2024-03-02T00:21:29;49.28;;;20.58;;
56429;SDS011;42332;52.136;20.666;2024-03-02T00:23:55;53.75;;;21.08;;
56429;SDS011;42332;52.136;20.666;2024-03-02T00:26:20;50.65;;;20.42;;
56429;SDS011;42332;52.136;20.666;2024-03-02T00:28:46;49.95;;;20.25;;
56429;SDS011;42332;52.136;20.666;2024-03-02T00:31:12;47.95;;;20.17;;
56429;SDS011;42332;52.136;20.666;2024-03-02T00:36:07;48.15;;;21.08;;
56429;SDS011;42332;52.136;20.666;2024-03-02T00:38:34;47.42;;;20.35;;
56429;SDS011;42332;52.136;20.666;2024-03-02T00:41:11;54.63;;;20.35;;
56429;SDS011;42332;52.136;20.666;2024-03-02T00:46:29;48.30;;;20.17;;
56429;SDS011;42332;52.136;20.666;2024-03-02T00:48:57;54.70;;;20.70;;
56429;SDS011;42332;52.136;20.666;2024-03-02T00:51:25;52.88;;;21.92;;
56429;SDS011;42332;52.136;20.666;2024-03-02T00:53:52;53.95;;;21.00;;
56429;SDS011;42332;52.136;20.666;2024-03-02T00:56:22;50.55;;;20.15;;
56429;SDS011;42332;52.136;20.666;2024-03-02T00:58:49;53.63;;;20.85;;
56429;SDS011;42332;52.136;20.666;2024-03-02T01:01:15;46.63;;;20.20;;
56429;SDS011;42332;52.136;20.666;2024-03-02T01:03:41;47.75;;;21.23;;
56429;SDS011;42332;52.136;20.666;2024-03-02T01:06:06;52.92;;;20.40;;
56429;SDS011;42332;52.136;20.666;2024-03-02T01:08:32;50.30;;;19.92;;
56429;SDS011;42332;52.136;20.666;2024-03-02T01:10:58;51.72;;;21.27;;
56429;SDS011;42332;52.136;20.666;2024-03-02T01:13:23;50.28;;;20.73;;
56429;SDS011;42332;52.136;20.666;2024-03-02T01:15:49;50.65;;;19.65;;
56429;SDS011;42332;52.136;20.666;2024-03-02T01:18:14;50.97;;;20.05;;
56429;SDS011;42332;52.136;20.666;2024-03-02T01:20:40;44.17;;;19.35;;
56429;SDS011;42332;52.136;20.666;2024-03-02T01:23:05;48.67;;;21.15;;
56429;SDS011;42332;52.136;20.666;2024-03-02T01:25:30;50.10;;;20.77;;
56429;SDS011;42332;52.136;20.666;2024-03-02T01:27:56;43.40;;;20.70;;
56429;SDS011;42332;52.136;20.666;2024-03-02T01:30:21;50.25;;;19.50;;
56429;SDS011;42332;52.136;20.666;2024-03-02T01:32:46;49.92;;;19.92;;
56429;SDS011;42332;52.136;20.666;2024-03-02T01:35:12;46.92;;;19.95;;
56429;SDS011;42332;52.136;20.666;2024-03-02T01:37:37;47.42;;;19.92;;
56429;SDS011;42332;52.136;20.666;2024-03-02T01:40:03;53.15;;;20.38;;
56429;SDS011;42332;52.136;20.666;2024-03-02T01:42:34;54.85;;;20.08;;
56429;SDS011;42332;52.136;20.666;2024-03-02T01:45:00;53.90;;;20.80;;
56429;SDS011;42332;52.136;20.666;2024-03-02T01:47:26;48.17;;;18.90;;
56429;SDS011;42332;52.136;20.666;2024-03-02T01:49:51;54.72;;;20.45;;
56429;SDS011;42332;52.136;20.666;2024-03-02T01:52:16;48.67;;;19.52;;
56429;SDS011;42332;52.136;20.666;2024-03-02T01:54:42;46.35;;;20.23;;
56429;SDS011;42332;52.136;20.666;2024-03-02T01:57:07;48.20;;;18.92;;
56429;SDS011;42332;52.136;20.666;2024-03-02T01:59:32;52.90;;;20.23;;
56429;SDS011;42332;52.136;20.666;2024-03-02T02:01:58;56.78;;;20.13;;
56429;SDS011;42332;52.136;20.666;2024-03-02T02:04:23;42.95;;;19.58;;
56429;SDS011;42332;52.136;20.666;2024-03-02T02:06:53;46.13;;;17.95;;
56429;SDS011;42332;52.136;20.666;2024-03-02T02:09:19;48.80;;;18.77;;
56429;SDS011;42332;52.136;20.666;2024-03-02T02:11:44;53.97;;;19.63;;
56429;SDS011;42332;52.136;20.666;2024-03-02T02:14:09;52.40;;;19.63;;
56429;SDS011;42332;52.136;20.666;2024-03-02T02:16:35;54.60;;;20.13;;
56429;SDS011;42332;52.136;20.666;2024-03-02T02:19:01;57.28;;;21.10;;
56429;SDS011;42332;52.136;20.666;2024-03-02T02:21:26;49.90;;;20.08;;
56429;SDS011;42332;52.136;20.666;2024-03-02T02:23:52;46.55;;;19.48;;
56429;SDS011;42332;52.136;20.666;2024-03-02T02:26:17;42.60;;;19.55;;
56429;SDS011;42332;52.136;20.666;2024-03-02T02:28:43;53.97;;;21.60;;
56429;SDS011;42332;52.136;20.666;2024-03-02T02:31:12;42.65;;;19.70;;
56429;SDS011;42332;52.136;20.666;2024-03-02T02:33:41;44.53;;;19.23;;
56429;SDS011;42332;52.136;20.666;2024-03-02T02:36:06;51.92;;;19.75;;
56429;SDS011;42332;52.136;20.666;2024-03-02T02:38:32;44.05;;;19.38;;
56429;SDS011;42332;52.136;20.666;2024-03-02T02:40:59;44.22;;;18.67;;
56429;SDS011;42332;52.136;20.666;2024-03-02T02:43:25;55.75;;;20.27;;
56429;SDS011;42332;52.136;20.666;2024-03-02T02:45:50;48.65;;;20.35;;
56429;SDS011;42332;52.136;20.666;2024-03-02T02:48:15;46.80;;;20.13;;
56429;SDS011;42332;52.136;20.666;2024-03-02T02:50:41;52.65;;;20.27;;
56429;SDS011;42332;52.136;20.666;2024-03-02T02:53:06;50.20;;;19.60;;
56429;SDS011;42332;52.136;20.666;2024-03-02T02:55:34;50.05;;;20.55;;
56429;SDS011;42332;52.136;20.666;2024-03-02T02:58:02;40.22;;;18.33;;
56429;SDS011;42332;52.136;20.666;2024-03-02T03:00:28;51.35;;;20.00;;
56429;SDS011;42332;52.136;20.666;2024-03-02T03:02:53;48.67;;;20.02;;
56429;SDS011;42332;52.136;20.666;2024-03-02T03:05:19;46.08;;;19.58;;
56429;SDS011;42332;52.136;20.666;2024-03-02T03:07:45;46.10;;;19.98;;
56429;SDS011;42332;52.136;20.666;2024-03-02T03:10:10;48.08;;;18.83;;
56429;SDS011;42332;52.136;20.666;2024-03-02T03:12:36;48.88;;;19.95;;
56429;SDS011;42332;52.136;20.666;2024-03-02T03:15:01;50.80;;;20.73;;
56429;SDS011;42332;52.136;20.666;2024-03-02T03:17:29;56.47;;;20.67;;
56429;SDS011;42332;52.136;20.666;2024-03-02T03:19:54;50.97;;;20.38;;
56429;SDS011;42332;52.136;20.666;2024-03-02T03:22:20;47.97;;;19.73;;
56429;SDS011;42332;52.136;20.666;2024-03-02T03:24:45;50.67;;;19.88;;
56429;SDS011;42332;52.136;20.666;2024-03-02T03:27:10;47.50;;;19.77;;
56429;SDS011;42332;52.136;20.666;2024-03-02T03:29:36;52.85;;;20.38;;
56429;SDS011;42332;52.136;20.666;2024-03-02T03:32:02;48.38;;;20.70;;
56429;SDS011;42332;52.136;20.666;2024-03-02T03:34:28;53.38;;;20.65;;
56429;SDS011;42332;52.136;20.666;2024-03-02T03:36:54;48.83;;;19.17;;
56429;SDS011;42332;52.136;20.666;2024-03-02T03:39:19;49.58;;;19.90;;
56429;SDS011;42332;52.136;20.666;2024-03-02T03:41:45;53.50;;;20.92;;
56429;SDS011;42332;52.136;20.666;2024-03-02T03:44:10;43.47;;;18.75;;
56429;SDS011;42332;52.136;20.666;2024-03-02T03:46:35;53.42;;;20.60;;
56429;SDS011;42332;52.136;20.666;2024-03-02T03:49:01;47.63;;;20.60;;
56429;SDS011;42332;52.136;20.666;2024-03-02T03:51:26;46.55;;;19.48;;
56429;SDS011;42332;52.136;20.666;2024-03-02T03:53:51;53.75;;;20.15;;
56429;SDS011;42332;52.136;20.666;2024-03-02T03:56:17;52.00;;;20.23;;
56429;SDS011;42332;52.136;20.666;2024-03-02T03:58:42;54.03;;;19.50;;
56429;SDS011;42332;52.136;20.666;2024-03-02T04:01:07;51.13;;;20.52;;
56429;SDS011;42332;52.136;20.666;2024-03-02T04:03:33;50.35;;;19.88;;
56429;SDS011;42332;52.136;20.666;2024-03-02T04:05:58;50.78;;;20.10;;
56429;SDS011;42332;52.136;20.666;2024-03-02T04:08:24;52.17;;;18.98;;
56429;SDS011;42332;52.136;20.666;2024-03-02T04:10:49;47.80;;;19.70;;
56429;SDS011;42332;52.136;20.666;2024-03-02T04:13:14;33.45;;;14.20;;
56429;SDS011;42332;52.136;20.666;2024-03-02T04:15:40;45.60;;;19.08;;
56429;SDS011;42332;52.136;20.666;2024-03-02T04:18:08;46.33;;;18.13;;
56429;SDS011;42332;52.136;20.666;2024-03-02T04:20:33;53.47;;;20.13;;
56429;SDS011;42332;52.136;20.666;2024-03-02T04:22:59;47.47;;;18.85;;
56429;SDS011;42332;52.136;20.666;2024-03-02T04:25:24;53.85;;;21.48;;
56429;SDS011;42332;52.136;20.666;2024-03-02T04:27:49;52.88;;;18.77;;
56429;SDS011;42332;52.136;20.666;2024-03-02T04:30:15;54.58;;;19.58;;
56429;SDS011;42332;52.136;20.666;2024-03-02T04:32:40;45.67;;;19.00;;
56429;SDS011;42332;52.136;20.666;2024-03-02T04:35:05;50.38;;;20.13;;
56429;SDS011;42332;52.136;20.666;2024-03-02T04:37:34;47.33;;;19.77;;
56429;SDS011;42332;52.136;20.666;2024-03-02T04:39:59;47.35;;;19.60;;
56429;SDS011;42332;52.136;20.666;2024-03-02T04:42:25;58.88;;;20.25;;
56429;SDS011;42332;52.136;20.666;2024-03-02T04:44:50;46.63;;;19.98;;
56429;SDS011;42332;52.136;20.666;2024-03-02T04:47:16;57.22;;;21.50;;
56429;SDS011;42332;52.136;20.666;2024-03-02T04:49:41;48.75;;;18.48;;
56429;SDS011;42332;52.136;20.666;2024-03-02T04:52:06;49.75;;;19.15;;
56429;SDS011;42332;52.136;20.666;2024-03-02T04:54:32;58.65;;;20.42;;
56429;SDS011;42332;52.136;20.666;2024-03-02T04:56:57;48.45;;;19.15;;
56429;SDS011;42332;52.136;20.666;2024-03-02T04:59:23;55.85;;;20.25;;
56429;SDS011;42332;52.136;20.666;2024-03-02T05:01:48;55.75;;;22.05;;
56429;SDS011;42332;52.136;20.666;2024-03-02T05:04:14;60.17;;;21.58;;
56429;SDS011;42332;52.136;20.666;2024-03-02T05:06:40;54.15;;;19.23;;
56429;SDS011;42332;52.136;20.666;2024-03-02T05:09:06;48.67;;;19.10;;
56429;SDS011;42332;52.136;20.666;2024-03-02T05:11:34;53.25;;;20.08;;
56429;SDS011;42332;52.136;20.666;2024-03-02T05:14:03;55.05;;;20.50;;
56429;SDS011;42332;52.136;20.666;2024-03-02T05:16:29;48.65;;;19.00;;
56429;SDS011;42332;52.136;20.666;2024-03-02T05:18:58;60.28;;;21.80;;
56429;SDS011;42332;52.136;20.666;2024-03-02T05:21:23;59.33;;;20.30;;
56429;SDS011;42332;52.136;20.666;2024-03-02T05:23:48;51.70;;;19.38;;
56429;SDS011;42332;52.136;20.666;2024-03-02T05:26:14;52.38;;;20.15;;
56429;SDS011;42332;52.136;20.666;2024-03-02T05:28:39;56.95;;;18.95;;
56429;SDS011;42332;52.136;20.666;2024-03-02T05:31:04;62.15;;;20.02;;
56429;SDS011;42332;52.136;20.666;2024-03-02T05:33:30;56.45;;;20.20;;
56429;SDS011;42332;52.136;20.666;2024-03-02T05:35:56;62.10;;;21.80;;
56429;SDS011;42332;52.136;20.666;2024-03-02T05:38:22;56.30;;;20.00;;
56429;SDS011;42332;52.136;20.666;2024-03-02T05:40:47;61.50;;;22.35;;
56429;SDS011;42332;52.136;20.666;2024-03-02T05:43:13;51.70;;;20.70;;
56429;SDS011;42332;52.136;20.666;2024-03-02T05:45:38;56.10;;;19.20;;
56429;SDS011;42332;52.136;20.666;2024-03-02T05:48:04;61.40;;;21.48;;
56429;SDS011;42332;52.136;20.666;2024-03-02T05:50:32;54.50;;;20.55;;
56429;SDS011;42332;52.136;20.666;2024-03-02T05:52:58;63.17;;;21.77;;
56429;SDS011;42332;52.136;20.666;2024-03-02T05:55:23;55.78;;;21.23;;
56429;SDS011;42332;52.136;20.666;2024-03-02T05:57:49;56.20;;;21.33;;
56429;SDS011;42332;52.136;20.666;2024-03-02T06:00:28;63.78;;;21.52;;
56429;SDS011;42332;52.136;20.666;2024-03-02T06:02:53;65.57;;;22.60;;
56429;SDS011;42332;52.136;20.666;2024-03-02T06:05:18;69.00;;;23.58;;
56429;SDS011;42332;52.136;20.666;2024-03-02T06:07:44;70.57;;;21.90;;
56429;SDS011;42332;52.136;20.666;2024-03-02T06:10:09;62.15;;;21.35;;
56429;SDS011;42332;52.136;20.666;2024-03-02T06:12:36;57.95;;;20.75;;
56429;SDS011;42332;52.136;20.666;2024-03-02T06:15:01;70.43;;;21.55;;
56429;SDS011;42332;52.136;20.666;2024-03-02T06:17:26;66.38;;;23.20;;
56429;SDS011;42332;52.136;20.666;2024-03-02T06:19:52;69.63;;;21.45;;
56429;SDS011;42332;52.136;20.666;2024-03-02T06:22:17;77.03;;;23.05;;
56429;SDS011;42332;52.136;20.666;2024-03-02T06:24:44;62.83;;;21.65;;
56429;SDS011;42332;52.136;20.666;2024-03-02T06:27:09;70.03;;;23.20;;
56429;SDS011;42332;52.136;20.666;2024-03-02T06:29:34;59.67;;;21.52;;
56429;SDS011;42332;52.136;20.666;2024-03-02T06:32:00;74.75;;;24.77;;
56429;SDS011;42332;52.136;20.666;2024-03-02T06:34:25;67.90;;;22.77;;
56429;SDS011;42332;52.136;20.666;2024-03-02T06:36:51;55.75;;;20.67;;
56429;SDS011;42332;52.136;20.666;2024-03-02T06:39:16;53.22;;;19.92;;
56429;SDS011;42332;52.136;20.666;2024-03-02T06:41:41;68.55;;;23.40;;
56429;SDS011;42332;52.136;20.666;2024-03-02T06:44:12;66.65;;;22.23;;
56429;SDS011;42332;52.136;20.666;2024-03-02T06:46:37;69.93;;;23.77;;
56429;SDS011;42332;52.136;20.666;2024-03-02T06:49:03;75.45;;;22.92;;
56429;SDS011;42332;52.136;20.666;2024-03-02T06:51:29;65.13;;;21.25;;
56429;SDS011;42332;52.136;20.666;2024-03-02T06:53:54;67.03;;;20.90;;
56429;SDS011;42332;52.136;20.666;2024-03-02T06:56:20;65.68;;;21.40;;
56429;SDS011;42332;52.136;20.666;2024-03-02T06:58:45;59.03;;;21.42;;
56429;SDS011;42332;52.136;20.666;2024-03-02T07:01:11;72.20;;;21.58;;
56429;SDS011;42332;52.136;20.666;2024-03-02T07:03:37;66.88;;;20.60;;
56429;SDS011;42332;52.136;20.666;2024-03-02T07:06:04;53.85;;;19.10;;
56429;SDS011;42332;52.136;20.666;2024-03-02T07:08:29;63.28;;;20.33;;
56429;SDS011;42332;52.136;20.666;2024-03-02T07:10:55;52.20;;;19.30;;
56429;SDS011;42332;52.136;20.666;2024-03-02T07:13:21;57.33;;;20.05;;
56429;SDS011;42332;52.136;20.666;2024-03-02T07:15:46;57.90;;;19.35;;
56429;SDS011;42332;52.136;20.666;2024-03-02T07:18:30;48.08;;;17.92;;
56429;SDS011;42332;52.136;20.666;2024-03-02T07:20:56;59.05;;;20.95;;
56429;SDS011;42332;52.136;20.666;2024-03-02T07:23:24;53.55;;;20.23;;
56429;SDS011;42332;52.136;20.666;2024-03-02T07:25:52;64.78;;;19.63;;
56429;SDS011;42332;52.136;20.666;2024-03-02T07:28:19;56.95;;;19.23;;
56429;SDS011;42332;52.136;20.666;2024-03-02T07:30:45;54.20;;;19.02;;
56429;SDS011;42332;52.136;20.666;2024-03-02T07:33:11;45.53;;;18.17;;
56429;SDS011;42332;52.136;20.666;2024-03-02T07:35:36;47.38;;;16.63;;
56429;SDS011;42332;52.136;20.666;2024-03-02T07:38:01;55.83;;;18.70;;
56429;SDS011;42332;52.136;20.666;2024-03-02T07:40:29;51.28;;;17.17;;
56429;SDS011;42332;52.136;20.666;2024-03-02T07:42:55;42.50;;;17.60;;
56429;SDS011;42332;52.136;20.666;2024-03-02T07:45:20;48.80;;;17.85;;
56429;SDS011;42332;52.136;20.666;2024-03-02T07:47:45;51.28;;;19.73;;
56429;SDS011;42332;52.136;20.666;2024-03-02T07:50:11;50.67;;;17.95;;
56429;SDS011;42332;52.136;20.666;2024-03-02T07:52:36;49.95;;;17.08;;
56429;SDS011;42332;52.136;20.666;2024-03-02T07:55:02;42.85;;;16.85;;
56429;SDS011;42332;52.136;20.666;2024-03-02T07:57:27;42.33;;;17.58;;
56429;SDS011;42332;52.136;20.666;2024-03-02T07:59:53;43.55;;;17.38;;
56429;SDS011;42332;52.136;20.666;2024-03-02T08:02:18;41.85;;;16.38;;
56429;SDS011;42332;52.136;20.666;2024-03-02T08:04:43;41.35;;;16.63;;
56429;SDS011;42332;52.136;20.666;2024-03-02T08:07:10;43.83;;;15.60;;
56429;SDS011;42332;52.136;20.666;2024-03-02T08:09:36;54.88;;;17.85;;
56429;SDS011;42332;52.136;20.666;2024-03-02T08:12:01;34.28;;;15.18;;
56429;SDS011;42332;52.136;20.666;2024-03-02T08:14:27;39.05;;;16.42;;
56429;SDS011;42332;52.136;20.666;2024-03-02T08:16:52;48.33;;;17.70;;
56429;SDS011;42332;52.136;20.666;2024-03-02T08:19:17;45.97;;;16.92;;
56429;SDS011;42332;52.136;20.666;2024-03-02T08:21:43;41.65;;;17.33;;
56429;SDS011;42332;52.136;20.666;2024-03-02T08:24:09;42.25;;;17.48;;
56429;SDS011;42332;52.136;20.666;2024-03-02T08:26:34;39.78;;;15.43;;
56429;SDS011;42332;52.136;20.666;2024-03-02T08:29:00;43.17;;;16.75;;
56429;SDS011;42332;52.136;20.666;2024-03-02T08:31:27;41.70;;;15.57;;
56429;SDS011;42332;52.136;20.666;2024-03-02T08:33:52;54.28;;;17.73;;
56429;SDS011;42332;52.136;20.666;2024-03-02T08:36:18;54.50;;;17.27;;
56429;SDS011;42332;52.136;20.666;2024-03-02T08:38:44;40.85;;;16.40;;
56429;SDS011;42332;52.136;20.666;2024-03-02T08:41:10;48.10;;;16.80;;
56429;SDS011;42332;52.136;20.666;2024-03-02T08:43:38;37.45;;;15.70;;
56429;SDS011;42332;52.136;20.666;2024-03-02T08:46:03;44.50;;;16.60;;
56429;SDS011;42332;52.136;20.666;2024-03-02T08:48:28;44.50;;;17.30;;
56429;SDS011;42332;52.136;20.666;2024-03-02T08:50:54;53.00;;;18.88;;
56429;SDS011;42332;52.136;20.666;2024-03-02T08:53:19;50.80;;;17.30;;
56429;SDS011;42332;52.136;20.666;2024-03-02T08:55:45;44.28;;;14.82;;
56429;SDS011;42332;52.136;20.666;2024-03-02T08:58:11;39.53;;;15.95;;
56429;SDS011;42332;52.136;20.666;2024-03-02T09:00:36;41.88;;;15.60;;
56429;SDS011;42332;52.136;20.666;2024-03-02T09:03:02;41.33;;;16.17;;
56429;SDS011;42332;52.136;20.666;2024-03-02T09:05:27;38.30;;;15.35;;
56429;SDS011;42332;52.136;20.666;2024-03-02T09:07:52;37.00;;;15.52;;
56429;SDS011;42332;52.136;20.666;2024-03-02T09:10:18;48.30;;;15.98;;
56429;SDS011;42332;52.136;20.666;2024-03-02T09:12:43;39.40;;;15.55;;
56429;SDS011;42332;52.136;20.666;2024-03-02T09:15:09;41.15;;;17.90;;
56429;SDS011;42332;52.136;20.666;2024-03-02T09:17:34;49.80;;;18.00;;
56429;SDS011;42332;52.136;20.666;2024-03-02T09:19:59;48.05;;;16.80;;
56429;SDS011;42332;52.136;20.666;2024-03-02T09:22:25;46.03;;;17.63;;
56429;SDS011;42332;52.136;20.666;2024-03-02T09:24:50;38.13;;;15.75;;
56429;SDS011;42332;52.136;20.666;2024-03-02T09:27:15;48.13;;;18.80;;
56429;SDS011;42332;52.136;20.666;2024-03-02T09:29:41;48.90;;;16.85;;
56429;SDS011;42332;52.136;20.666;2024-03-02T09:32:06;42.78;;;16.67;;
56429;SDS011;42332;52.136;20.666;2024-03-02T09:34:37;46.50;;;16.88;;
56429;SDS011;42332;52.136;20.666;2024-03-02T09:37:02;37.83;;;16.08;;
56429;SDS011;42332;52.136;20.666;2024-03-02T09:39:29;38.78;;;15.30;;
56429;SDS011;42332;52.136;20.666;2024-03-02T09:41:54;41.05;;;15.98;;
56429;SDS011;42332;52.136;20.666;2024-03-02T09:44:20;37.60;;;15.35;;
56429;SDS011;42332;52.136;20.666;2024-03-02T09:46:50;46.95;;;15.02;;
56429;SDS011;42332;52.136;20.666;2024-03-02T09:49:16;35.20;;;14.43;;
56429;SDS011;42332;52.136;20.666;2024-03-02T09:51:43;41.75;;;15.00;;
56429;SDS011;42332;52.136;20.666;2024-03-02T09:54:12;39.88;;;15.18;;
56429;SDS011;42332;52.136;20.666;2024-03-02T09:56:38;37.08;;;14.68;;
56429;SDS011;42332;52.136;20.666;2024-03-02T09:59:04;38.63;;;15.85;;
56429;SDS011;42332;52.136;20.666;2024-03-02T10:01:30;42.10;;;15.32;;
56429;SDS011;42332;52.136;20.666;2024-03-02T10:03:58;38.60;;;16.73;;
56429;SDS011;42332;52.136;20.666;2024-03-02T10:06:25;39.50;;;15.88;;
56429;SDS011;42332;52.136;20.666;2024-03-02T10:08:51;39.33;;;15.45;;
56429;SDS011;42332;52.136;20.666;2024-03-02T10:14:09;35.72;;;14.70;;
56429;SDS011;42332;52.136;20.666;2024-03-02T10:16:42;40.88;;;15.40;;
56429;SDS011;42332;52.136;20.666;2024-03-02T10:21:51;36.92;;;15.13;;
56429;SDS011;42332;52.136;20.666;2024-03-02T10:24:21;48.75;;;17.48;;
56429;SDS011;42332;52.136;20.666;2024-03-02T10:26:47;41.42;;;15.52;;
56429;SDS011;42332;52.136;20.666;2024-03-02T10:29:13;39.88;;;17.00;;
56429;SDS011;42332;52.136;20.666;2024-03-02T10:31:39;37.92;;;14.23;;
56429;SDS011;42332;52.136;20.666;2024-03-02T10:34:09;45.63;;;16.60;;
56429;SDS011;42332;52.136;20.666;2024-03-02T10:36:34;40.08;;;14.95;;
56429;SDS011;42332;52.136;20.666;2024-03-02T10:39:03;32.63;;;14.60;;
56429;SDS011;42332;52.136;20.666;2024-03-02T10:41:37;37.70;;;14.82;;
56429;SDS011;42332;52.136;20.666;2024-03-02T10:44:04;36.22;;;15.80;;
56429;SDS011;42332;52.136;20.666;2024-03-02T10:46:31;33.67;;;13.25;;
56429;SDS011;42332;52.136;20.666;2024-03-02T10:48:58;34.75;;;14.77;;
56429;SDS011;42332;52.136;20.666;2024-03-02T10:51:24;40.03;;;15.27;;
56429;SDS011;42332;52.136;20.666;2024-03-02T10:53:51;39.55;;;14.82;;
56429;SDS011;42332;52.136;20.666;2024-03-02T10:56:19;36.38;;;14.55;;
56429;SDS011;42332;52.136;20.666;2024-03-02T10:58:50;34.58;;;13.80;;
56429;SDS011;42332;52.136;20.666;2024-03-02T11:01:38;34.40;;;14.30;;
56429;SDS011;42332;52.136;20.666;2024-03-02T11:04:04;32.45;;;14.35;;
56429;SDS011;42332;52.136;20.666;2024-03-02T11:06:33;32.78;;;13.38;;
56429;SDS011;42332;52.136;20.666;2024-03-02T11:09:05;45.60;;;15.30;;
56429;SDS011;42332;52.136;20.666;2024-03-02T11:11:35;38.78;;;14.43;;
56429;SDS011;42332;52.136;20.666;2024-03-02T11:14:02;32.00;;;13.68;;
56429;SDS011;42332;52.136;20.666;2024-03-02T11:16:36;33.83;;;14.07;;
56429;SDS011;42332;52.136;20.666;2024-03-02T11:19:04;47.70;;;17.73;;
56429;SDS011;42332;52.136;20.666;2024-03-02T11:21:31;38.25;;;16.00;;
56429;SDS011;42332;52.136;20.666;2024-03-02T11:23:58;41.03;;;15.20;;
56429;SDS011;42332;52.136;20.666;2024-03-02T11:26:23;40.50;;;15.73;;
56429;SDS011;42332;52.136;20.666;2024-03-02T11:28:49;40.53;;;15.10;;
56429;SDS011;42332;52.136;20.666;2024-03-02T11:31:15;38.30;;;15.10;;
56429;SDS011;42332;52.136;20.666;2024-03-02T11:33:42;55.40;;;18.52;;
56429;SDS011;42332;52.136;20.666;2024-03-02T11:36:08;41.08;;;15.00;;
56429;SDS011;42332;52.136;20.666;2024-03-02T11:38:34;43.35;;;15.50;;
56429;SDS011;42332;52.136;20.666;2024-03-02T11:41:01;32.30;;;13.77;;
56429;SDS011;42332;52.136;20.666;2024-03-02T11:43:36;40.35;;;15.15;;
56429;SDS011;42332;52.136;20.666;2024-03-02T11:46:05;42.50;;;16.02;;
56429;SDS011;42332;52.136;20.666;2024-03-02T11:48:35;35.80;;;14.73;;
56429;SDS011;42332;52.136;20.666;2024-03-02T11:51:02;39.08;;;14.63;;
56429;SDS011;42332;52.136;20.666;2024-03-02T11:53:27;40.03;;;14.60;;
56429;SDS011;42332;52.136;20.666;2024-03-02T11:55:57;36.95;;;14.35;;
56429;SDS011;42332;52.136;20.666;2024-03-02T11:58:23;47.13;;;14.50;;
56429;SDS011;42332;52.136;20.666;2024-03-02T12:00:54;38.72;;;14.93;;
56429;SDS011;42332;52.136;20.666;2024-03-02T12:03:21;36.15;;;15.45;;
56429;SDS011;42332;52.136;20.666;2024-03-02T12:05:50;32.63;;;14.80;;
56429;SDS011;42332;52.136;20.666;2024-03-02T12:08:17;40.47;;;15.63;;
56429;SDS011;42332;52.136;20.666;2024-03-02T12:10:42;38.65;;;15.63;;
56429;SDS011;42332;52.136;20.666;2024-03-02T12:13:09;37.00;;;14.98;;
56429;SDS011;42332;52.136;20.666;2024-03-02T12:15:36;35.60;;;15.18;;
56429;SDS011;42332;52.136;20.666;2024-03-02T12:18:03;37.42;;;15.02;;
56429;SDS011;42332;52.136;20.666;2024-03-02T12:20:30;34.63;;;14.32;;
56429;SDS011;42332;52.136;20.666;2024-03-02T12:23:01;33.53;;;12.85;;
56429;SDS011;42332;52.136;20.666;2024-03-02T12:25:27;29.55;;;13.10;;
56429;SDS011;42332;52.136;20.666;2024-03-02T12:27:54;31.73;;;14.25;;
56429;SDS011;42332;52.136;20.666;2024-03-02T12:30:20;35.58;;;13.55;;
56429;SDS011;42332;52.136;20.666;2024-03-02T12:32:46;35.10;;;13.35;;
56429;SDS011;42332;52.136;20.666;2024-03-02T12:35:13;43.55;;;15.40;;
56429;SDS011;42332;52.136;20.666;2024-03-02T12:37:45;33.65;;;13.85;;
56429;SDS011;42332;52.136;20.666;2024-03-02T12:40:12;42.50;;;14.57;;
56429;SDS011;42332;52.136;20.666;2024-03-02T12:42:38;33.40;;;14.00;;
56429;SDS011;42332;52.136;20.666;2024-03-02T12:45:04;38.63;;;14.43;;
56429;SDS011;42332;52.136;20.666;2024-03-02T12:47:31;34.30;;;12.63;;
56429;SDS011;42332;52.136;20.666;2024-03-02T12:49:57;42.70;;;15.50;;
56429;SDS011;42332;52.136;20.666;2024-03-02T12:52:23;35.28;;;13.63;;
56429;SDS011;42332;52.136;20.666;2024-03-02T12:54:49;31.20;;;14.77;;
56429;SDS011;42332;52.136;20.666;2024-03-02T12:57:20;36.30;;;14.57;;
56429;SDS011;42332;52.136;20.666;2024-03-02T12:59:46;33.42;;;13.93;;
56429;SDS011;42332;52.136;20.666;2024-03-02T13:02:18;33.20;;;14.05;;
56429;SDS011;42332;52.136;20.666;2024-03-02T13:04:43;32.40;;;13.45;;
56429;SDS011;42332;52.136;20.666;2024-03-02T13:07:09;34.65;;;13.55;;
56429;SDS011;42332;52.136;20.666;2024-03-02T13:09:35;30.02;;;13.27;;
56429;SDS011;42332;52.136;20.666;2024-03-02T13:12:01;32.85;;;14.90;;
56429;SDS011;42332;52.136;20.666;2024-03-02T13:14:26;33.65;;;13.32;;
56429;SDS011;42332;52.136;20.666;2024-03-02T13:16:51;35.22;;;13.25;;
56429;SDS011;42332;52.136;20.666;2024-03-02T13:19:18;38.33;;;13.07;;
56429;SDS011;42332;52.136;20.666;2024-03-02T13:21:46;32.60;;;14.68;;
56429;SDS011;42332;52.136;20.666;2024-03-02T13:24:11;33.58;;;14.55;;
56429;SDS011;42332;52.136;20.666;2024-03-02T13:26:37;37.15;;;15.65;;
56429;SDS011;42332;52.136;20.666;2024-03-02T13:29:02;35.65;;;15.05;;
56429;SDS011;42332;52.136;20.666;2024-03-02T13:31:27;33.20;;;15.13;;
56429;SDS011;42332;52.136;20.666;2024-03-02T13:33:53;36.42;;;16.17;;
56429;SDS011;42332;52.136;20.666;2024-03-02T13:36:18;33.75;;;15.10;;
56429;SDS011;42332;52.136;20.666;2024-03-02T13:38:44;38.90;;;15.38;;
56429;SDS011;42332;52.136;20.666;2024-03-02T13:41:09;38.92;;;16.90;;
56429;SDS011;42332;52.136;20.666;2024-03-02T13:43:36;38.50;;;16.15;;
56429;SDS011;42332;52.136;20.666;2024-03-02T13:46:03;35.10;;;15.93;;
56429;SDS011;42332;52.136;20.666;2024-03-02T13:48:29;36.50;;;15.93;;
56429;SDS011;42332;52.136;20.666;2024-03-02T13:50:55;44.47;;;18.08;;
56429;SDS011;42332;52.136;20.666;2024-03-02T13:53:21;41.00;;;17.65;;
56429;SDS011;42332;52.136;20.666;2024-03-02T13:55:46;42.97;;;17.65;;
56429;SDS011;42332;52.136;20.666;2024-03-02T13:58:11;40.25;;;18.08;;
56429;SDS011;42332;52.136;20.666;2024-03-02T14:00:37;41.03;;;18.23;;
56429;SDS011;42332;52.136;20.666;2024-03-02T14:03:04;40.58;;;18.88;;
56429;SDS011;42332;52.136;20.666;2024-03-02T14:05:30;39.42;;;18.05;;
56429;SDS011;42332;52.136;20.666;2024-03-02T14:07:56;45.28;;;17.98;;
56429;SDS011;42332;52.136;20.666;2024-03-02T14:10:21;46.95;;;18.48;;
56429;SDS011;42332;52.136;20.666;2024-03-02T14:12:48;35.13;;;17.45;;
56429;SDS011;42332;52.136;20.666;2024-03-02T14:15:13;42.25;;;19.23;;